Tiempo atmosférico en la estación meteorológica de Telde, Centro Forestal Doramas, Las Palmas (344 m.)



Fecha
DESCASC
Temp. máxima en grados centígrados (hora)
DESCASC
Temp. mínima en grados centígrados (hora)
DESCASC
Temp. media en grados centígrados
DESCASC
Racha de viento máxima en m/sg (hora)
DESCASC
Velocidad máxima media en intervalos de 10 minutos(hora)
DESCASC
Precipitaciones diarias en mm
DESCASC
Precipitaciones de 00:00 a 06:00 en mm
DESCASC
Precipitaciones de 06:00 a 12:00 en mm
DESCASC
Precipitaciones de 12:00 a 18:00 en mm
DESCASC
Precipitaciones de 18:00 a 24:00 en mm
DESCASC
23-06-2019 24.6 (12:10) 18.4 (05:10) 21.5 10.56 (06:10) 5 (06:10) 0 0 0 0 0
22-06-2019 26.5 (15:30) 17.1 (04:20) 21.8 12.78 (02:10) 8.61 (00:40) 0 0 0 0 0
21-06-2019 23.9 (16:30) 18 (06:10) 20.9 12.22 (19:40) 6.94 (13:20) 0 0 0 0 0
20-06-2019 24.8 (15:00) 18 (00:00) 21.4 12.78 (19:10) 7.5 (16:40) 0 0 0 0 0
19-06-2019 25 (14:50) 17.8 (00:00) 21.4 11.39 (16:30) 7.22 (16:40) 0 0 0 0 0
18-06-2019 23.2 (10:00) 15.9 (00:00) 19.6 6.39 (11:30) 4.17 (11:20) 0 0 0 0 0
17-06-2019 23.2 (17:10) 13.5 (00:00) 18.4 6.67 (15:00) 3.89 (11:50) 0 0 0 0 0
16-06-2019 20.9 (16:40) 13.3 (00:00) 17.1 7.5 (10:20) 3.89 (11:20) 0 0 0 0 0
15-06-2019 20.9 (12:00) 14.5 (00:00) 17.7 7.78 (11:40) 4.17 (11:10) 0 0 0 0 0
14-06-2019 19.1 (11:30) 14.2 (00:00) 16.7 6.94 (14:20) 3.61 (11:40) 0 0 0 0 0
13-06-2019 22.7 (15:00) 15.8 (00:00) 19.3 13.06 (14:00) 7.78 (14:00) 0 0 0 0 0
12-06-2019 22.7 (15:50) 16.2 (00:00) 19.5 12.22 (05:50) 7.22 (02:50) 1.4 0.4 1 0 0
11-06-2019 20.8 (16:10) 16.3 (00:00) 18.5 14.17 (19:30) 7.5 (14:00) 0 0 0 0 0
10-06-2019 22.2 (15:40) 16.3 (00:00) 19.3 13.06 (13:30) 7.78 (14:30) 0 0 0 0 0
09-06-2019 21.8 (15:40) 15.9 (00:00) 18.8 13.06 (23:10) 7.5 (16:50) 0 0 0 0 0
08-06-2019 21.6 (17:40) 16.7 (00:00) 19.2 11.11 (16:30) 6.67 (22:20) 1.4 0.2 1.2 0 0
07-06-2019 23.2 (16:10) 16 (00:00) 19.6 11.94 (02:10) 6.94 (02:10) 0 0 0 0 0
06-06-2019 21.8 (15:10) 16.2 (00:00) 19 12.22 (22:10) 6.94 (15:50) 0 0 0 0 0
05-06-2019 23.3 (14:10) 17 (00:00) 20.1 13.06 (02:10) 7.22 (00:10) 0.2 0 0 0 0.2
04-06-2019 28.7 (13:00) 18 (00:00) 23.4 12.22 (23:10) 8.33 (23:00) 0 0 0 0 0
03-06-2019 32.7 (15:40) 23.6 (00:00) 28.2 10.56 (16:10) 6.39 (16:50) 0 0 0 0 0
02-06-2019 32 (10:00) 20.7 (00:00) 26.4 7.5 (19:50) 4.72 (18:40) 0 0 0 0 0
01-06-2019 25.8 (16:40) 15.6 (00:00) 20.7 7.5 (10:10) 4.44 (10:10) 0 0 0 0 0
31-05-2019 27.6 (15:50) 14.2 (00:00) 20.9 6.67 (12:10) 4.17 (14:20) 0 0 0 0 0
30-05-2019 27.6 (16:00) 12.6 (00:00) 20.1 7.78 (14:50) 5.28 (14:40) 0 0 0 0 0
29-05-2019 26.4 (15:30) 12.9 (00:00) 19.6 9.17 (01:00) 5.28 (16:50) 0 0 0 0 0
28-05-2019 24.8 (12:50) 16.7 (00:00) 20.8 11.39 (19:40) 7.22 (19:40) 0 0 0 0 0

Gráficas

Temp. máximas Temp. mínimas Temp. medias Precipitaciones Rachas de viento máximas Velocidades máximas media en intervalos de 10 minutos

Datos horarios

Fecha y hora oficial Temperatura (ºC) Velocidad del viento (km/h) Dirección del viento Racha (km/h) Dirección de racha Precipitación (mm) Presión (hPa) Tendencia (hPa) Humedad (%)
2019-06-26 23:00:00 -- -- -- -- -- -- -- -- --
2019-06-26 22:00:00 -- -- -- -- -- -- -- -- --
2019-06-26 21:00:00 19.2 17 Noroeste 31 Noroeste 0 -- -- 72
2019-06-26 20:00:00 20.8 15 Noroeste 35 Oeste 0 -- -- 65
2019-06-26 19:00:00 21.3 15 Noroeste 34 Noroeste 0 -- -- 66
2019-06-26 18:00:00 20.8 22 Norte 35 Noroeste 0 -- -- 69
2019-06-26 17:00:00 21.3 20 Noroeste 32 Noroeste 0 -- -- 68
2019-06-26 16:00:00 22.3 18 Noroeste 38 Noroeste 0 -- -- 64
2019-06-26 15:00:00 23.1 17 Norte 35 Norte 0 -- -- 63
2019-06-26 14:00:00 23.6 17 Norte 32 Norte 0 -- -- 60
2019-06-26 13:00:00 22.5 13 Noroeste 30 Norte 0 -- -- 63
2019-06-26 12:00:00 21.1 18 Norte 29 Noroeste 0 -- -- 71
2019-06-26 11:00:00 20 12 Noroeste 24 Noroeste 0 -- -- 80
2019-06-26 10:00:00 19.5 10 Noroeste 24 Noroeste 0 -- -- 84
2019-06-26 09:00:00 20.5 16 Noroeste 27 Oeste 0 -- -- 71
2019-06-26 08:00:00 19.4 12 Oeste 30 Oeste 0 -- -- 69
2019-06-26 07:00:00 19.1 15 Oeste 32 Oeste 0 -- -- 70
2019-06-26 06:00:00 18.9 12 Oeste 40 Oeste 0 -- -- 73
2019-06-26 05:00:00 18.9 14 Noroeste 30 Noroeste 0 -- -- 73
2019-06-26 04:00:00 19 13 Noroeste 25 Noroeste 0 -- -- 75
2019-06-26 03:00:00 19.4 10 Noroeste 27 Norte 0 -- -- 75
2019-06-26 02:00:00 19.7 14 Noroeste 27 Noroeste 0 -- -- 74
2019-06-26 01:00:00 19.9 13 Noroeste 30 Noroeste 0 -- -- 77
2019-06-26 00:00:00 20.1 13 Noroeste 28 Noroeste 0 -- -- 78
2019-06-25 23:00:00 20.3 8 Norte 25 Noroeste 0 -- -- 81
2019-06-25 22:00:00 20.2 12 Noroeste 26 Noroeste 0 -- -- 80
2019-06-25 21:00:00 20 15 Noroeste 27 Noroeste 0 -- -- 83
2019-06-25 20:00:00 20.5 12 Noroeste 25 Norte 0 -- -- 81
2019-06-25 19:00:00 21.5 17 Norte 31 Norte 0 -- -- 79
2019-06-25 18:00:00 22.4 15 Noroeste 27 Norte 0 -- -- 72
2019-06-25 17:00:00 21.7 13 Norte 23 Norte 0 -- -- 74
2019-06-25 16:00:00 21.2 6 Noroeste 15 Noroeste 0 -- -- 79
2019-06-25 15:00:00 21.3 6 Norte 19 Norte 0 -- -- 80
2019-06-25 14:00:00 21.4 13 Norte 19 Norte 0 -- -- 81
2019-06-25 13:00:00 22.5 13 Norte 22 Noroeste 0 -- -- 76
2019-06-25 12:00:00 23.8 12 Noroeste 25 Norte 0 -- -- 71
2019-06-25 11:00:00 24.8 15 Norte 24 Noroeste 0 -- -- 69
2019-06-25 10:00:00 24.4 14 Norte 19 Norte 0 -- -- 69
2019-06-25 09:00:00 23 9 Norte 13 Norte 0 -- -- 71
2019-06-25 08:00:00 19.1 5 Oeste 10 Oeste 0 -- -- 76
2019-06-25 07:00:00 18.2 8 Oeste 13 Sudoeste 0 -- -- 78
2019-06-25 06:00:00 18.3 8 Sudoeste 14 Sudoeste 0 -- -- 76
2019-06-25 05:00:00 18.6 8 Oeste 11 Oeste 0 -- -- 76
2019-06-25 04:00:00 18.8 7 Oeste 12 Oeste 0 -- -- 75
2019-06-25 03:00:00 18.3 6 Sudoeste 9 Sudoeste 0 -- -- 80
2019-06-25 02:00:00 18.5 4 Sudoeste 6 Sudoeste 0 -- -- 81
2019-06-25 01:00:00 18.6 0 Calma 5 Sudoeste 0 -- -- 87
2019-06-25 00:00:00 19.2 2 Oeste 4 Oeste 0 -- -- 88
2019-06-24 23:00:00 20 0 Calma 6 Noroeste 0 -- -- 87
2019-06-24 22:00:00 20.7 4 Sudeste 8 Este 0 -- -- 85
2019-06-24 21:00:00 21.5 5 Este 12 Este 0 -- -- 82
2019-06-24 20:00:00 22.6 6 Este 14 Este 0 -- -- 76
2019-06-24 19:00:00 22.9 7 Nordeste 18 Nordeste 0 -- -- 76
2019-06-24 18:00:00 23.8 11 Norte 26 Este 0 -- -- 72
2019-06-24 17:00:00 25.1 16 Este 32 Este 0 -- -- 67
2019-06-24 16:00:00 26.2 12 Sudeste 27 Este 0 -- -- 62
2019-06-24 15:00:00 26.3 18 Este 33 Este 0 -- -- 60
2019-06-24 14:00:00 25.8 18 Este 32 Este 0 -- -- 61
2019-06-24 13:00:00 25.3 18 Este 30 Este 0 -- -- 62
2019-06-24 12:00:00 23.7 14 Este 24 Este 0 -- -- 67
2019-06-24 11:00:00 22.6 12 Este 26 Este 0 -- -- 72
2019-06-24 10:00:00 21.7 6 Sudeste 14 Nordeste 0 -- -- 74
2019-06-24 09:00:00 20 3 Norte 6 Este 0 -- -- 81
2019-06-24 08:00:00 18.2 4 Oeste 12 Oeste 0 -- -- 81
2019-06-24 07:00:00 17.1 6 Oeste 12 Oeste 0 -- -- 83
2019-06-24 06:00:00 17.4 6 Sudoeste 12 Sudoeste 0 -- -- 83
2019-06-24 05:00:00 17.4 5 Sudoeste 9 Sudoeste 0 -- -- 81
2019-06-24 04:00:00 17.8 5 Sudoeste 9 Oeste 0 -- -- 80
2019-06-24 03:00:00 17.6 5 Sudoeste 10 Sudoeste 0 -- -- 81
2019-06-24 02:00:00 18 6 Sudoeste 10 Oeste 0 -- -- 81
2019-06-24 01:00:00 18.2 6 Sudoeste 10 Sudoeste 0 -- -- 83
2019-06-24 00:00:00 18.6 4 Oeste 6 Sudoeste 0 -- -- 88
2019-06-23 23:00:00 19.4 3 Este 5 Este 0 -- -- 89
2019-06-23 22:00:00 19.7 0 Calma 8 Nordeste 0 -- -- 87
2019-06-23 21:00:00 20.3 4 Este 11 Este 0 -- -- 84
2019-06-23 20:00:00 21.6 7 Nordeste 16 Este 0 -- -- 78
2019-06-23 19:00:00 22.6 8 Nordeste 17 Este 0 -- -- 71
2019-06-23 18:00:00 22.9 8 Este 18 Este 0 -- -- 69
2019-06-23 17:00:00 22.4 9 Este 17 Este 0 -- -- 71
2019-06-23 16:00:00 22.4 10 Este 21 Sudeste 0 -- -- 70
2019-06-23 15:00:00 22.9 10 Este 23 Este 0 -- -- 68
2019-06-23 14:00:00 24 9 Este 22 Este 0 -- -- 64
2019-06-23 13:00:00 23.9 13 Este 25 Este 0 -- -- 64
2019-06-23 12:00:00 24.1 13 Este 27 Este 0 -- -- 62
2019-06-23 11:00:00 24 13 Nordeste 24 Nordeste 0 -- -- 59
2019-06-23 10:00:00 23.2 13 Norte 23 Norte 0 -- -- 61
2019-06-23 09:00:00 21 12 Noroeste 26 Noroeste 0 -- -- 67
2019-06-23 08:00:00 19.4 12 Noroeste 24 Oeste 0 -- -- 68
2019-06-23 07:00:00 18.5 11 Oeste 38 Noroeste 0 -- -- 72
2019-06-23 06:00:00 18.7 15 Noroeste 32 Noroeste 0 -- -- 72
2019-06-23 05:00:00 18.6 11 Noroeste 28 Noroeste 0 -- -- 73
2019-06-23 04:00:00 18.9 10 Oeste 26 Noroeste 0 -- -- 71
2019-06-23 03:00:00 19 15 Noroeste 32 Noroeste 0 -- -- 73
2019-06-23 02:00:00 18.9 14 Noroeste 30 Noroeste 0 -- -- 74
2019-06-23 01:00:00 19 8 Noroeste 25 Oeste 0 -- -- 74
2019-06-23 00:00:00 19.1 17 Noroeste 34 Noroeste 0 -- -- 72
2019-06-22 23:00:00 19.5 15 Noroeste 34 Noroeste 0 -- -- 66
2019-06-22 22:00:00 19.4 14 Noroeste 36 Noroeste 0 -- -- 66
2019-06-22 21:00:00 19.9 18 Noroeste 33 Noroeste 0 -- -- 67
2019-06-22 20:00:00 22.4 18 Noroeste 30 Noroeste 0 -- -- 60
2019-06-22 19:00:00 24.2 12 Norte 31 Noroeste 0 -- -- 50
2019-06-22 18:00:00 25 18 Norte 42 Noroeste 0 -- -- 50
2019-06-22 17:00:00 25.5 18 Noroeste 41 Noroeste 0 -- -- 44
2019-06-22 16:00:00 26.4 21 Norte 37 Norte 0 -- -- 40
2019-06-22 15:00:00 26.4 19 Norte 33 Norte 0 -- -- 37
2019-06-22 14:00:00 25.2 19 Norte 28 Norte 0 -- -- 48
2019-06-22 13:00:00 24.8 15 Norte 30 Norte 0 -- -- 48
2019-06-22 12:00:00 23.5 17 Norte 34 Noroeste 0 -- -- 54
2019-06-22 11:00:00 21.9 15 Noroeste 40 Noroeste 0 -- -- 60
2019-06-22 10:00:00 20.9 17 Noroeste 38 Norte 0 -- -- 63
2019-06-22 09:00:00 19 20 Noroeste 42 Noroeste 0 -- -- 69
2019-06-22 08:00:00 17.3 15 Noroeste 36 Oeste 0 -- -- 74
2019-06-22 07:00:00 17.4 10 Noroeste 30 Noroeste 0 -- -- 72
2019-06-22 06:00:00 17.4 23 Noroeste 42 Noroeste 0 -- -- 72
2019-06-22 05:00:00 17.3 14 Noroeste 31 Noroeste 0 -- -- 71
2019-06-22 04:00:00 17.3 17 Noroeste 32 Noroeste 0 -- -- 76
2019-06-22 03:00:00 17.6 14 Noroeste 46 Noroeste 0 -- -- 71
2019-06-22 02:00:00 18.2 25 Noroeste 44 Noroeste 0 -- -- 69
2019-06-22 01:00:00 18.3 27 Noroeste 46 Oeste 0 -- -- 71
2019-06-22 00:00:00 18.1 18 Noroeste 36 Noroeste 0 -- -- 72
2019-06-21 23:00:00 18.5 20 Oeste 35 Noroeste 0 -- -- 67
2019-06-21 22:00:00 18.6 21 Noroeste 37 Noroeste 0 -- -- 68
2019-06-21 21:00:00 19.4 20 Noroeste 42 Norte 0 -- -- 67
2019-06-21 20:00:00 20.9 23 Noroeste 44 Noroeste 0 -- -- 62
2019-06-21 19:00:00 21.8 24 Noroeste 40 Nordeste 0 -- -- 58
2019-06-21 18:00:00 23 20 Norte 39 Noroeste 0 -- -- 57
2019-06-21 17:00:00 23.1 22 Norte 38 Noroeste 0 -- -- 55
2019-06-21 16:00:00 23.4 19 Noroeste 41 Noroeste 0 -- -- 55
2019-06-21 15:00:00 23.1 23 Noroeste 40 Noroeste 0 -- -- 57
2019-06-21 14:00:00 23 23 Norte 40 Norte 0 -- -- 60
2019-06-21 13:00:00 23 21 Norte 40 Noroeste 0 -- -- 58
2019-06-21 12:00:00 22.2 21 Norte 41 Noroeste 0 -- -- 58
2019-06-21 11:00:00 21 17 Noroeste 38 Noroeste 0 -- -- 66
2019-06-21 10:00:00 20.4 19 Noroeste 40 Noroeste 0 -- -- 65
2019-06-21 09:00:00 19.4 15 Oeste 35 Noroeste 0 -- -- 66
2019-06-21 08:00:00 18.4 16 Noroeste 40 Noroeste 0 -- -- 69
2019-06-21 07:00:00 18.1 19 Noroeste 36 Noroeste 0 -- -- 70
2019-06-21 06:00:00 18.1 17 Noroeste 36 Noroeste 0 -- -- 73
2019-06-21 05:00:00 18.1 12 Noroeste 40 Noroeste 0 -- -- 68
2019-06-21 04:00:00 18.2 14 Noroeste 32 Noroeste 0 -- -- 69
2019-06-21 03:00:00 18.3 17 Noroeste 37 Noroeste 0 -- -- 67
2019-06-21 02:00:00 18.4 17 Noroeste 33 Noroeste 0 -- -- 69
2019-06-21 01:00:00 18.5 15 Noroeste 35 Noroeste 0 -- -- 69
2019-06-21 00:00:00 18.8 18 Noroeste 37 Oeste 0 -- -- 69
2019-06-20 23:00:00 18.8 17 Noroeste 33 Noroeste 0 -- -- 70
2019-06-20 22:00:00 18.9 21 Noroeste 40 Noroeste 0 -- -- 74
2019-06-20 21:00:00 19.2 17 Noroeste 38 Noroeste 0 -- -- 72
2019-06-20 20:00:00 20.5 18 Noroeste 46 Noroeste 0 -- -- 70
2019-06-20 19:00:00 22.4 20 Noroeste 42 Noroeste 0 -- -- 59
2019-06-20 18:00:00 23.3 24 Noroeste 41 Norte 0 -- -- 57
2019-06-20 17:00:00 23.7 22 Noroeste 40 Norte 0 -- -- 51
2019-06-20 16:00:00 23.9 24 Noroeste 42 Norte 0 -- -- 52
2019-06-20 15:00:00 24.8 23 Norte 38 Norte 0 -- -- 50
2019-06-20 14:00:00 24.7 18 Noroeste 38 Norte 0 -- -- 49
2019-06-20 13:00:00 23.6 23 Noroeste 39 Norte 0 -- -- 53
2019-06-20 12:00:00 23 20 Noroeste 41 Norte 0 -- -- 52
2019-06-20 11:00:00 22 22 Norte 34 Norte 0 -- -- 62
2019-06-20 10:00:00 21.1 13 Noroeste 28 Norte 0 -- -- 67
2019-06-20 09:00:00 20.6 19 Norte 29 Norte 0 -- -- 67
2019-06-20 08:00:00 19.6 17 Noroeste 32 Noroeste 0 -- -- 70
2019-06-20 07:00:00 18.5 10 Noroeste 27 Noroeste 0 -- -- 69
2019-06-20 06:00:00 18.3 10 Noroeste 30 Oeste 0 -- -- 69
2019-06-20 05:00:00 18 13 Noroeste 26 Noroeste 0 -- -- 70
2019-06-20 04:00:00 18.4 16 Noroeste 30 Noroeste 0 -- -- 73
2019-06-20 03:00:00 18.5 9 Norte 20 Norte 0 -- -- 75
2019-06-20 02:00:00 18.6 9 Noroeste 19 Noroeste 0 -- -- 69
2019-06-20 01:00:00 19 10 Noroeste 19 Oeste 0 -- -- 69
2019-06-20 00:00:00 19.5 9 Noroeste 23 Noroeste 0 -- -- 65
2019-06-19 23:00:00 19.5 9 Noroeste 25 Noroeste 0 -- -- 65
2019-06-19 22:00:00 19.6 6 Noroeste 23 Noroeste 0 -- -- 66
2019-06-19 21:00:00 20.5 10 Norte 26 Norte 0 -- -- 64
2019-06-19 20:00:00 22.4 14 Norte 30 Norte 0 -- -- 60
2019-06-19 19:00:00 23.1 20 Norte 36 Noroeste 0 -- -- 57
2019-06-19 18:00:00 24.3 21 Noroeste 36 Norte 0 -- -- 50
2019-06-19 17:00:00 24.4 24 Norte 41 Norte 0 -- -- 50
2019-06-19 16:00:00 24.5 18 Norte 39 Norte 0 -- -- 54
2019-06-19 15:00:00 25 21 Norte 37 Norte 0 -- -- 57
2019-06-19 14:00:00 24.7 13 Norte 39 Norte 0 -- -- 58
2019-06-19 13:00:00 23.6 14 Norte 31 Norte 0 -- -- 60
2019-06-19 12:00:00 23.7 16 Norte 34 Norte 0 -- -- 59
2019-06-19 11:00:00 22.8 17 Norte 29 Norte 0 -- -- 62
2019-06-19 10:00:00 21.8 15 Norte 21 Norte 0 -- -- 66
2019-06-19 09:00:00 20 7 Norte 14 Norte 0 -- -- 71
2019-06-19 08:00:00 18.4 6 Oeste 11 Noroeste 0 -- -- 76
2019-06-19 07:00:00 17.9 5 Oeste 14 Oeste 0 -- -- 70
2019-06-19 06:00:00 17.9 10 Oeste 13 Oeste 0 -- -- 72
2019-06-19 05:00:00 18.6 6 Oeste 11 Oeste 0 -- -- 72
2019-06-19 04:00:00 18.6 7 Oeste 11 Oeste 0 -- -- 73
2019-06-19 03:00:00 19.2 6 Oeste 11 Noroeste 0 -- -- 74
2019-06-19 02:00:00 19.5 6 Noroeste 12 Norte 0 -- -- 80
2019-06-19 01:00:00 19.7 6 Noroeste 15 Noroeste 0 -- -- 80
2019-06-19 00:00:00 19.7 7 Noroeste 15 Norte 0 -- -- 81
2019-06-18 23:00:00 19.8 6 Noroeste 14 Norte 0 -- -- 83
2019-06-18 22:00:00 19.8 0 Calma 8 Sudoeste 0 -- -- 84
2019-06-18 21:00:00 20.2 2 Noroeste 8 Oeste 0 -- -- 82
2019-06-18 20:00:00 20 0 Calma 7 Noroeste 0 -- -- 85
2019-06-18 19:00:00 20.1 2 Este 11 Este 0 -- -- 85
2019-06-18 18:00:00 -- -- -- -- -- -- -- -- --
2019-06-18 17:00:00 20.6 7 Este 18 Nordeste 0 -- -- 79
2019-06-18 16:00:00 21.3 11 Este 19 Este 0 -- -- 76
2019-06-18 15:00:00 21.9 7 Este 13 Este 0 -- -- 74
2019-06-18 14:00:00 22 8 Este 15 Nordeste 0 -- -- 73
2019-06-18 13:00:00 22.3 10 Este 19 Nordeste 0 -- -- 71
2019-06-18 12:00:00 22.6 9 Este 23 Este 0 -- -- 71
2019-06-18 11:00:00 22.6 14 Este 23 Sudeste 0 -- -- 70
2019-06-18 10:00:00 23.2 8 Norte 18 Norte 0 -- -- 65
2019-06-18 09:00:00 21.2 12 Norte 18 Norte 0 -- -- 70
2019-06-18 08:00:00 17.1 4 Oeste 10 Sudoeste 0 -- -- 71
2019-06-18 07:00:00 16.1 8 Sudoeste 10 Sudoeste 0 -- -- 74
2019-06-18 06:00:00 16 6 Sudoeste 12 Oeste 0 -- -- 74
2019-06-18 05:00:00 15.9 8 Oeste 13 Oeste 0 -- -- 76
2019-06-18 04:00:00 16 5 Sudoeste 8 Sudoeste 0 -- -- 79
2019-06-18 03:00:00 16.4 4 Sudoeste 8 Sudoeste 0 -- -- 78
2019-06-18 02:00:00 16.5 4 Sudoeste 6 Sudoeste 0 -- -- 79
2019-06-18 01:00:00 16.9 4 Oeste 7 Sudoeste 0 -- -- 80
2019-06-18 00:00:00 17.6 0 Calma 4 Sudoeste 0 -- -- 83
2019-06-17 23:00:00 18 0 Calma 3 Sudoeste 0 -- -- 81
2019-06-17 22:00:00 18.7 0 Calma 8 Este 0 -- -- 81
2019-06-17 21:00:00 19.6 5 Nordeste 12 Nordeste 0 -- -- 77
2019-06-17 20:00:00 21.5 5 Este 16 Este 0 -- -- 69
2019-06-17 19:00:00 22.1 9 Nordeste 18 Este 0 -- -- 66
2019-06-17 18:00:00 22.7 9 Este 21 Este 0 -- -- 63
2019-06-17 17:00:00 22.9 10 Nordeste 23 Este 0 -- -- 63
2019-06-17 16:00:00 22.9 13 Nordeste 23 Este 0 -- -- 63
2019-06-17 15:00:00 22.7 13 Nordeste 24 Este 0 -- -- 63
2019-06-17 14:00:00 22.3 11 Este 24 Este 0 -- -- 64
2019-06-17 13:00:00 22.3 13 Este 21 Este 0 -- -- 64
2019-06-17 12:00:00 21.4 10 Nordeste 22 Este 0 -- -- 66
2019-06-17 11:00:00 21.1 9 Este 17 Nordeste 0 -- -- 67
2019-06-17 10:00:00 19.9 7 Este 12 Este 0 -- -- 68
2019-06-17 09:00:00 18 3 Sudeste 8 Este 0 -- -- 72
2019-06-17 08:00:00 14.8 5 Sudoeste 16 Oeste 0 -- -- 78
2019-06-17 07:00:00 13.7 9 Oeste 14 Oeste 0 -- -- 78
2019-06-17 06:00:00 13.5 6 Sudoeste 10 Oeste 0 -- -- 78
2019-06-17 05:00:00 13.8 8 Oeste 12 Sudoeste 0 -- -- 77
2019-06-17 04:00:00 14.1 8 Oeste 12 Oeste 0 -- -- 77
2019-06-17 03:00:00 14.2 7 Sudoeste 10 Sudoeste 0 -- -- 78
2019-06-17 02:00:00 14.4 5 Sudoeste 11 Oeste 0 -- -- 78
2019-06-17 01:00:00 14.8 5 Oeste 12 Sudoeste 0 -- -- 79
2019-06-17 00:00:00 15.3 5 Sudoeste 9 Sudoeste 0 -- -- 79
2019-06-16 23:00:00 16.2 0 Calma 9 Noroeste 0 -- -- 78
2019-06-16 22:00:00 16.6 6 Norte 12 Norte 0 -- -- 77
2019-06-16 21:00:00 17.2 6 Nordeste 14 Nordeste 0 -- -- 78
2019-06-16 20:00:00 18.3 7 Nordeste 20 Nordeste 0 -- -- 70
2019-06-16 19:00:00 19.6 12 Nordeste 22 Este 0 -- -- 67
2019-06-16 18:00:00 20.2 12 Nordeste 23 Nordeste 0 -- -- 66
2019-06-16 17:00:00 20.5 12 Este 24 Nordeste 0 -- -- 65
2019-06-16 16:00:00 19.7 13 Nordeste 24 Este 0 -- -- 68
2019-06-16 15:00:00 19.3 11 Este 20 Nordeste 0 -- -- 70
2019-06-16 14:00:00 19 10 Nordeste 23 Nordeste 0 -- -- 70
2019-06-16 13:00:00 18.7 9 Nordeste 22 Este 0 -- -- 72
2019-06-16 12:00:00 19.1 13 Este 27 Este 0 -- -- 71
2019-06-16 11:00:00 19.5 12 Nordeste 27 Nordeste 0 -- -- 69
2019-06-16 10:00:00 19.5 11 Nordeste 21 Nordeste 0 -- -- 69
2019-06-16 09:00:00 18.4 7 Noroeste 12 Noroeste 0 -- -- 68
2019-06-16 08:00:00 14.5 10 Oeste 15 Oeste 0 -- -- 71
2019-06-16 07:00:00 13.3 9 Sudoeste 15 Oeste 0 -- -- 79
2019-06-16 06:00:00 13.4 9 Sudoeste 15 Oeste 0 -- -- 77
2019-06-16 05:00:00 14 10 Oeste 14 Oeste 0 -- -- 75
2019-06-16 04:00:00 14.1 10 Oeste 13 Oeste 0 -- -- 74
2019-06-16 03:00:00 15.4 6 Oeste 12 Oeste 0 -- -- 75
2019-06-16 02:00:00 16.4 5 Norte 10 Norte 0 -- -- 79
2019-06-16 01:00:00 16.7 3 Norte 12 Nordeste 0 -- -- 78
2019-06-16 00:00:00 16.8 6 Norte 14 Norte 0 -- -- 77
2019-06-15 23:00:00 16.8 8 Noroeste 16 Noroeste 0 -- -- 76
2019-06-15 22:00:00 17 10 Norte 18 Noroeste 0 -- -- 72
2019-06-15 21:00:00 17.3 11 Norte 19 Noroeste 0 -- -- 73
2019-06-15 20:00:00 17.3 8 Nordeste 18 Nordeste 0 -- -- 74
2019-06-15 19:00:00 17.7 9 Nordeste 18 Norte 0 -- -- 75
2019-06-15 18:00:00 17.8 11 Nordeste 19 Nordeste 0 -- -- 73
2019-06-15 17:00:00 18.2 6 Norte 18 Nordeste 0 -- -- 69
2019-06-15 16:00:00 17.8 10 Este 20 Nordeste 0 -- -- 71
2019-06-15 15:00:00 17.9 10 Nordeste 19 Este 0 -- -- 72
2019-06-15 14:00:00 18.9 10 Nordeste 24 Este 0 -- -- 67
2019-06-15 13:00:00 20.1 11 Nordeste 26 Este 0 -- -- 62
2019-06-15 12:00:00 20.9 13 Nordeste 28 Nordeste 0 -- -- 55
2019-06-15 11:00:00 20.7 11 Nordeste 21 Este 0 -- -- 53
2019-06-15 10:00:00 19.3 10 Oeste 21 Oeste 0 -- -- 60
2019-06-15 09:00:00 17.3 5 Norte 17 Nordeste 0 -- -- 69
2019-06-15 08:00:00 16.1 4 Norte 11 Noroeste 0 -- -- 79
2019-06-15 07:00:00 15.9 4 Noroeste 14 Noroeste 0 -- -- 79
2019-06-15 06:00:00 15.8 7 Noroeste 13 Norte 0 -- -- 77
2019-06-15 05:00:00 15.8 10 Oeste 20 Oeste 0 -- -- 70
2019-06-15 04:00:00 15.4 10 Oeste 17 Noroeste 0 -- -- 75
2019-06-15 03:00:00 16 9 Noroeste 19 Noroeste 0 -- -- 74
2019-06-15 02:00:00 15.4 8 Oeste 14 Oeste 0 -- -- 69
2019-06-15 01:00:00 14.6 9 Oeste 13 Oeste 0 -- -- 72
2019-06-15 00:00:00 15.5 5 Noroeste 13 Noroeste 0 -- -- 74
2019-06-14 23:00:00 16.1 7 Noroeste 15 Noroeste 0 -- -- 76
2019-06-14 22:00:00 16.8 10 Noroeste 16 Noroeste 0 -- -- 74
2019-06-14 21:00:00 17.1 13 Norte 22 Norte 0 -- -- 72
2019-06-14 20:00:00 18.1 9 Norte 22 Norte 0 -- -- 69
2019-06-14 19:00:00 18.5 9 Nordeste 22 Norte 0 -- -- 64
2019-06-14 18:00:00 18.7 9 Nordeste 22 Nordeste 0 -- -- 60
2019-06-14 17:00:00 18.2 8 Nordeste 21 Nordeste 0 -- -- 64
2019-06-14 16:00:00 17.9 9 Norte 23 Norte 0 -- -- 67
2019-06-14 15:00:00 17.7 9 Nordeste 25 Este 0 -- -- 72
2019-06-14 14:00:00 18.6 13 Nordeste 24 Nordeste 0 -- -- 72
2019-06-14 13:00:00 18.7 6 Norte 22 Norte 0 -- -- 65
2019-06-14 12:00:00 18.7 11 Nordeste 25 Nordeste 0 -- -- 65
2019-06-14 11:00:00 17.9 12 Nordeste 21 Este 0 -- -- 72
2019-06-14 10:00:00 18.3 10 Norte 21 Noroeste 0 -- -- 60
2019-06-14 09:00:00 18 8 Noroeste 22 Noroeste 0 -- -- 62
2019-06-14 08:00:00 16.3 8 Oeste 15 Oeste 0 -- -- 63
2019-06-14 07:00:00 14.5 10 Oeste 15 Oeste 0 -- -- 70
2019-06-14 06:00:00 15.3 6 Oeste 13 Noroeste 0 -- -- 75
2019-06-14 05:00:00 15 3 Oeste 10 Oeste 0 -- -- 67
2019-06-14 04:00:00 14.9 9 Oeste 15 Oeste 0 -- -- 66
2019-06-14 03:00:00 15.3 5 Noroeste 14 Noroeste 0 -- -- 69
2019-06-14 02:00:00 15.7 6 Noroeste 17 Noroeste 0 -- -- 72
2019-06-14 01:00:00 16.2 9 Noroeste 19 Oeste 0 -- -- 71
2019-06-14 00:00:00 16.3 8 Noroeste 19 Noroeste 0 -- -- 70
2019-06-13 23:00:00 16.6 9 Noroeste 21 Noroeste 0 -- -- 68
2019-06-13 22:00:00 16.7 11 Noroeste 28 Noroeste 0 -- -- 71
2019-06-13 21:00:00 17.2 17 Noroeste 31 Noroeste 0 -- -- 70
2019-06-13 20:00:00 18.6 16 Noroeste 31 Norte 0 -- -- 61
2019-06-13 19:00:00 20 21 Norte 36 Noroeste 0 -- -- 58
2019-06-13 18:00:00 21.6 18 Noroeste 36 Norte 0 -- -- 52
2019-06-13 17:00:00 22.3 17 Norte 40 Norte 0 -- -- 49
2019-06-13 16:00:00 22.5 22 Norte 42 Norte 0 -- -- 46
2019-06-13 15:00:00 22.7 24 Norte 45 Noroeste 0 -- -- 46
2019-06-13 14:00:00 22.2 28 Norte 47 Noroeste 0 -- -- 46
2019-06-13 13:00:00 21.7 16 Noroeste 39 Norte 0 -- -- 48
2019-06-13 12:00:00 20.9 17 Noroeste 36 Norte 0 -- -- 52
2019-06-13 11:00:00 19.5 17 Noroeste 37 Noroeste 0 -- -- 57
2019-06-13 10:00:00 17.9 12 Noroeste 30 Noroeste 0 -- -- 69
2019-06-13 09:00:00 16.8 15 Noroeste 29 Noroeste 0 -- -- 70
2019-06-13 08:00:00 16.4 15 Noroeste 36 Noroeste 0 -- -- 72
2019-06-13 07:00:00 16.1 15 Noroeste 29 Noroeste 0 -- -- 75
2019-06-13 06:00:00 16.3 17 Noroeste 33 Noroeste 0 -- -- 76
2019-06-13 05:00:00 16.2 13 Noroeste 28 Noroeste 0 -- -- 73
2019-06-13 04:00:00 16.2 15 Norte 26 Noroeste 0 -- -- 75
2019-06-13 03:00:00 16.6 13 Noroeste 39 Noroeste 0 -- -- 64
2019-06-13 02:00:00 16.5 13 Noroeste 32 Noroeste 0 -- -- 70
2019-06-13 01:00:00 16.8 16 Noroeste 37 Oeste 0 -- -- 67
2019-06-13 00:00:00 16.5 18 Noroeste 36 Oeste 0 -- -- 69
2019-06-12 23:00:00 16.9 15 Noroeste 36 Noroeste 0 -- -- 73
2019-06-12 22:00:00 16.9 15 Noroeste 34 Noroeste 0 -- -- 75
2019-06-12 21:00:00 17.3 16 Noroeste 31 Noroeste 0 -- -- 76
2019-06-12 20:00:00 17.6 18 Norte 36 Noroeste 0 -- -- 79
2019-06-12 19:00:00 18.9 15 Noroeste 35 Oeste 0 -- -- 72
2019-06-12 18:00:00 20.2 19 Norte 41 Noroeste 0 -- -- 68
2019-06-12 17:00:00 22.5 22 Norte 41 Noroeste 0 -- -- 54
2019-06-12 16:00:00 22.6 22 Norte 38 Norte 0 -- -- 53
2019-06-12 15:00:00 21.8 22 Noroeste 34 Noroeste 0 -- -- 61
2019-06-12 14:00:00 20.4 21 Noroeste 36 Noroeste 0 -- -- 67
2019-06-12 13:00:00 19.1 17 Noroeste 41 Noroeste 0 -- -- 76
2019-06-12 12:00:00 17.9 17 Noroeste 39 Noroeste 0 -- -- 83
2019-06-12 11:00:00 17.6 18 Noroeste 37 Noroeste 0.2 -- -- 84
2019-06-12 10:00:00 16.3 19 Noroeste 33 Norte 0.6 -- -- 92
2019-06-12 09:00:00 17.1 13 Noroeste 32 Oeste 0.2 -- -- 87
2019-06-12 08:00:00 17 15 Noroeste 37 Oeste 0 -- -- 80
2019-06-12 07:00:00 16.5 16 Noroeste 40 Oeste 0 -- -- 86
2019-06-12 06:00:00 16.4 21 Noroeste 44 Noroeste 0 -- -- 88
2019-06-12 05:00:00 16.2 19 Noroeste 34 Oeste 0.4 -- -- 89
2019-06-12 04:00:00 16.7 14 Noroeste 36 Noroeste 0 -- -- 86
2019-06-12 03:00:00 16.4 19 Noroeste 40 Noroeste 0 -- -- 88
2019-06-12 02:00:00 17.2 18 Oeste 37 Oeste 0 -- -- 81
2019-06-12 01:00:00 16.9 19 Noroeste 43 Noroeste 0 -- -- 83
2019-06-12 00:00:00 17.5 23 Noroeste 44 Noroeste 0 -- -- 78
2019-06-11 23:00:00 18.2 21 Noroeste 49 Noroeste 0 -- -- 73
2019-06-11 22:00:00 18.2 18 Oeste 49 Noroeste 0 -- -- 72
2019-06-11 21:00:00 17.9 23 Noroeste 46 Noroeste 0 -- -- 73
2019-06-11 20:00:00 18.3 21 Noroeste 51 Noroeste 0 -- -- 72
2019-06-11 19:00:00 19.6 20 Noroeste 50 Noroeste 0 -- -- 67
2019-06-11 18:00:00 20.1 21 Noroeste 50 Noroeste 0 -- -- 67
2019-06-11 17:00:00 19.6 20 Noroeste 43 Noroeste 0 -- -- 73
2019-06-11 16:00:00 20.4 19 Noroeste 38 Noroeste 0 -- -- 66
2019-06-11 15:00:00 19.7 21 Noroeste 46 Noroeste 0 -- -- 71
2019-06-11 14:00:00 18.3 27 Noroeste 39 Noroeste 0 -- -- 81
2019-06-11 13:00:00 19.5 17 Noroeste 40 Noroeste 0 -- -- 73
2019-06-11 12:00:00 19.6 21 Noroeste 43 Noroeste 0 -- -- 68
2019-06-11 11:00:00 18.2 21 Noroeste 48 Noroeste 0 -- -- 72
2019-06-11 10:00:00 17.2 19 Noroeste 44 Noroeste 0 -- -- 74
2019-06-11 09:00:00 16.6 25 Noroeste 47 Noroeste 0 -- -- 77
2019-06-11 08:00:00 16.7 24 Noroeste 44 Oeste 0 -- -- 75
2019-06-11 07:00:00 16.4 22 Noroeste 38 Noroeste 0 -- -- 78
2019-06-11 06:00:00 16.6 17 Noroeste 42 Oeste 0 -- -- 71
2019-06-11 05:00:00 16.7 19 Oeste 41 Noroeste 0 -- -- 73
2019-06-11 04:00:00 16.8 19 Oeste 45 Noroeste 0 -- -- 70
2019-06-11 03:00:00 16.7 21 Noroeste 40 Norte 0 -- -- 73
2019-06-11 02:00:00 16.9 23 Noroeste 43 Oeste 0 -- -- 75
2019-06-11 01:00:00 16.8 19 Oeste 48 Noroeste 0 -- -- 72
2019-06-11 00:00:00 17 26 Noroeste 40 Noroeste 0 -- -- 76
2019-06-10 23:00:00 17.3 22 Noroeste 41 Noroeste 0 -- -- 72
2019-06-10 22:00:00 17.5 19 Oeste 37 Noroeste 0 -- -- 72
2019-06-10 21:00:00 17.3 27 Noroeste 42 Noroeste 0 -- -- 76
2019-06-10 20:00:00 18.4 20 Noroeste 43 Norte 0 -- -- 71
2019-06-10 19:00:00 19.4 19 Noroeste 42 Noroeste 0 -- -- 65
2019-06-10 18:00:00 19.9 22 Noroeste 45 Norte 0 -- -- 63
2019-06-10 17:00:00 20.5 22 Noroeste 42 Norte 0 -- -- 58
2019-06-10 16:00:00 20.3 24 Noroeste 42 Noroeste 0 -- -- 65
2019-06-10 15:00:00 21 27 Noroeste 44 Noroeste 0 -- -- 58
2019-06-10 14:00:00 21 21 Norte 47 Noroeste 0 -- -- 58
2019-06-10 13:00:00 20.5 22 Noroeste 41 Noroeste 0 -- -- 62
2019-06-10 12:00:00 19.3 22 Noroeste 37 Noroeste 0 -- -- 67
2019-06-10 11:00:00 18.3 18 Noroeste 35 Noroeste 0 -- -- 70
2019-06-10 10:00:00 17.5 19 Noroeste 41 Noroeste 0 -- -- 75
2019-06-10 09:00:00 17.1 18 Noroeste 33 Noroeste 0 -- -- 73
2019-06-10 08:00:00 16.6 13 Noroeste 39 Noroeste 0 -- -- 73
2019-06-10 07:00:00 16.5 20 Oeste 33 Noroeste 0 -- -- 73
2019-06-10 06:00:00 16.3 14 Noroeste 37 Noroeste 0 -- -- 78
2019-06-10 05:00:00 16.5 17 Oeste 34 Noroeste 0 -- -- 72
2019-06-10 04:00:00 16.7 15 Oeste 32 Noroeste 0 -- -- 73
2019-06-10 03:00:00 16.7 17 Noroeste 34 Noroeste 0 -- -- 76
2019-06-10 02:00:00 16.7 20 Noroeste 41 Noroeste 0 -- -- 75
2019-06-10 01:00:00 16.8 21 Noroeste 39 Oeste 0 -- -- 75
2019-06-10 00:00:00 17 21 Noroeste 47 Oeste 0 -- -- 77
2019-06-09 23:00:00 17.2 14 Noroeste 40 Noroeste 0 -- -- 72
2019-06-09 22:00:00 17.2 18 Noroeste 37 Noroeste 0 -- -- 71
2019-06-09 21:00:00 17.1 25 Noroeste 40 Noroeste 0 -- -- 70
2019-06-09 20:00:00 17.7 21 Noroeste 41 Noroeste 0 -- -- 68
2019-06-09 19:00:00 19 24 Noroeste 40 Noroeste 0 -- -- 62
2019-06-09 18:00:00 20.1 27 Noroeste 44 Noroeste 0 -- -- 59
2019-06-09 17:00:00 21 24 Noroeste 45 Norte 0 -- -- 55
2019-06-09 16:00:00 21.3 22 Noroeste 42 Norte 0 -- -- 54
2019-06-09 15:00:00 21.2 26 Norte 41 Norte 0 -- -- 51
2019-06-09 14:00:00 20.5 23 Noroeste 39 Norte 0 -- -- 55
2019-06-09 13:00:00 19.6 19 Norte 37 Norte 0 -- -- 60
2019-06-09 12:00:00 20.2 16 Norte 29 Norte 0 -- -- 56
2019-06-09 11:00:00 17.7 12 Noroeste 30 Noroeste 0 -- -- 70
2019-06-09 10:00:00 17.3 15 Noroeste 31 Noroeste 0 -- -- 71
2019-06-09 09:00:00 17.1 13 Noroeste 29 Noroeste 0 -- -- 64
2019-06-09 08:00:00 16 11 Noroeste 31 Noroeste 0 -- -- 74
2019-06-09 07:00:00 16.3 10 Noroeste 26 Noroeste 0 -- -- 66
2019-06-09 06:00:00 16.3 13 Noroeste 29 Noroeste 0 -- -- 69
2019-06-09 05:00:00 16.4 14 Oeste 31 Noroeste 0 -- -- 71
2019-06-09 04:00:00 16.3 13 Oeste 33 Oeste 0 -- -- 70
2019-06-09 03:00:00 16 21 Oeste 34 Noroeste 0 -- -- 72
2019-06-09 02:00:00 16.1 13 Noroeste 36 Noroeste 0 -- -- 73
2019-06-09 01:00:00 16.4 16 Noroeste 33 Noroeste 0 -- -- 74
2019-06-09 00:00:00 16.7 13 Noroeste 32 Noroeste 0 -- -- 73
2019-06-08 23:00:00 16.9 17 Noroeste 38 Noroeste 0 -- -- 75
2019-06-08 22:00:00 17 23 Noroeste 37 Noroeste 0 -- -- 74
2019-06-08 21:00:00 17.3 17 Noroeste 34 Noroeste 0 -- -- 72
2019-06-08 20:00:00 18.3 13 Noroeste 39 Noroeste 0 -- -- 72
2019-06-08 19:00:00 19.9 23 Norte 39 Norte 0 -- -- 63
2019-06-08 18:00:00 21.1 23 Noroeste 40 Norte 0 -- -- 59
2019-06-08 17:00:00 20.7 22 Norte 40 Noroeste 0 -- -- 58
2019-06-08 16:00:00 20.1 14 Norte 31 Noroeste 0 -- -- 65
2019-06-08 15:00:00 19 19 Norte 31 Norte 0 -- -- 72
2019-06-08 14:00:00 18.5 15 Nordeste 26 Nordeste 0 -- -- 80
2019-06-08 13:00:00 19.1 10 Noroeste 26 Noroeste 0 -- -- 75
2019-06-08 12:00:00 18.4 13 Noroeste 26 Noroeste 0 -- -- 78
2019-06-08 11:00:00 18 14 Noroeste 24 Noroeste 0 -- -- 79
2019-06-08 10:00:00 17 10 Noroeste 24 Noroeste 1 -- -- 87
2019-06-08 09:00:00 17.3 8 Noroeste 20 Noroeste 0 -- -- 87
2019-06-08 08:00:00 17.4 11 Noroeste 20 Noroeste 0.2 -- -- 83
2019-06-08 07:00:00 17.1 10 Noroeste 19 Oeste 0 -- -- 86
2019-06-08 06:00:00 17.1 10 Noroeste 20 Noroeste 0 -- -- 86
2019-06-08 05:00:00 17.3 8 Noroeste 18 Noroeste 0 -- -- 85
2019-06-08 04:00:00 17.5 11 Norte 23 Noroeste 0.2 -- -- 87
2019-06-08 03:00:00 18 12 Noroeste 27 Noroeste 0 -- -- 82
2019-06-08 02:00:00 18.4 15 Noroeste 33 Noroeste 0 -- -- 79
2019-06-08 01:00:00 19 14 Noroeste 31 Noroeste 0 -- -- 74
2019-06-08 00:00:00 18.9 17 Oeste 35 Noroeste 0 -- -- 71
2019-06-07 23:00:00 18.9 11 Noroeste 31 Oeste 0 -- -- 71
2019-06-07 22:00:00 19.1 12 Noroeste 36 Noroeste 0 -- -- 70
2019-06-07 21:00:00 19 13 Noroeste 26 Noroeste 0 -- -- 70
2019-06-07 20:00:00 20.7 16 Noroeste 28 Noroeste 0 -- -- 64
2019-06-07 19:00:00 22 18 Norte 30 Noroeste 0 -- -- 60
2019-06-07 18:00:00 22.5 18 Noroeste 33 Noroeste 0 -- -- 58
2019-06-07 17:00:00 22.4 18 Noroeste 37 Noroeste 0 -- -- 57
2019-06-07 16:00:00 23 21 Norte 33 Norte 0 -- -- 57
2019-06-07 15:00:00 22.4 14 Noroeste 31 Norte 0 -- -- 59
2019-06-07 14:00:00 21.5 19 Norte 35 Norte 0 -- -- 61
2019-06-07 13:00:00 21.5 14 Noroeste 33 Noroeste 0 -- -- 57
2019-06-07 12:00:00 19.9 14 Noroeste 32 Norte 0 -- -- 63
2019-06-07 11:00:00 18.9 17 Noroeste 32 Noroeste 0 -- -- 64
2019-06-07 10:00:00 17.5 15 Noroeste 35 Oeste 0 -- -- 72
2019-06-07 09:00:00 17.2 14 Noroeste 27 Noroeste 0 -- -- 71
2019-06-07 08:00:00 16.5 18 Noroeste 34 Noroeste 0 -- -- 73
2019-06-07 07:00:00 16.1 21 Noroeste 33 Noroeste 0 -- -- 72
2019-06-07 06:00:00 16.4 17 Noroeste 33 Oeste 0 -- -- 69
2019-06-07 05:00:00 16.3 15 Oeste 35 Oeste 0 -- -- 69
2019-06-07 04:00:00 16.3 17 Oeste 34 Oeste 0 -- -- 68
2019-06-07 03:00:00 16.2 23 Oeste 43 Noroeste 0 -- -- 71
2019-06-07 02:00:00 16.7 23 Noroeste 34 Noroeste 0 -- -- 74
2019-06-07 01:00:00 16.6 21 Noroeste 40 Noroeste 0 -- -- 71
2019-06-07 00:00:00 16.4 19 Noroeste 37 Oeste 0 -- -- 70
2019-06-06 23:00:00 16.4 18 Noroeste 44 Noroeste 0 -- -- 72
2019-06-06 22:00:00 16.6 16 Noroeste 41 Noroeste 0 -- -- 70
2019-06-06 21:00:00 16.9 18 Noroeste 39 Noroeste 0 -- -- 68
2019-06-06 20:00:00 17.7 19 Noroeste 43 Noroeste 0 -- -- 63
2019-06-06 19:00:00 19.8 18 Noroeste 39 Noroeste 0 -- -- 57
2019-06-06 18:00:00 20.6 17 Norte 37 Norte 0 -- -- 56
2019-06-06 17:00:00 19.3 19 Noroeste 39 Noroeste 0 -- -- 61
2019-06-06 16:00:00 19.9 19 Noroeste 42 Noroeste 0 -- -- 62
2019-06-06 15:00:00 21.2 18 Norte 36 Norte 0 -- -- 55
2019-06-06 14:00:00 20.7 15 Norte 37 Noroeste 0 -- -- 56
2019-06-06 13:00:00 19.5 19 Noroeste 40 Noroeste 0 -- -- 59
2019-06-06 12:00:00 19.2 21 Noroeste 40 Noroeste 0 -- -- 56
2019-06-06 11:00:00 17.3 13 Noroeste 27 Norte 0 -- -- 72
2019-06-06 10:00:00 18.2 18 Noroeste 27 Noroeste 0 -- -- 62
2019-06-06 09:00:00 17.4 12 Noroeste 32 Noroeste 0 -- -- 65
2019-06-06 08:00:00 16.4 16 Noroeste 30 Noroeste 0 -- -- 76
2019-06-06 07:00:00 16.2 10 Noroeste 31 Noroeste 0 -- -- 75
2019-06-06 06:00:00 16.2 10 Noroeste 31 Noroeste 0 -- -- 76
2019-06-06 05:00:00 16.3 13 Noroeste 29 Noroeste 0 -- -- 77
2019-06-06 04:00:00 16.4 14 Noroeste 29 Noroeste 0 -- -- 79
2019-06-06 03:00:00 16.5 11 Noroeste 26 Norte 0 -- -- 80
2019-06-06 02:00:00 16.6 15 Noroeste 32 Noroeste 0 -- -- 81
2019-06-06 01:00:00 16.6 14 Noroeste 28 Noroeste 0 -- -- 85
2019-06-06 00:00:00 17 13 Norte 28 Noroeste 0 -- -- 84
2019-06-05 23:00:00 17.3 14 Noroeste 31 Noroeste 0 -- -- 82
2019-06-05 22:00:00 17.1 18 Noroeste 33 Noroeste 0.2 -- -- 85
2019-06-05 21:00:00 17.9 18 Noroeste 33 Oeste 0 -- -- 80
2019-06-05 20:00:00 18.5 15 Noroeste 38 Noroeste 0 -- -- 76
2019-06-05 19:00:00 19.3 17 Norte 35 Norte 0 -- -- 71
2019-06-05 18:00:00 19.9 14 Noroeste 33 Noroeste 0 -- -- 68
2019-06-05 17:00:00 20.1 17 Noroeste 37 Norte 0 -- -- 70
2019-06-05 16:00:00 22 19 Norte 39 Noroeste 0 -- -- 61
2019-06-05 15:00:00 22.6 21 Norte 40 Norte 0 -- -- 59
2019-06-05 14:00:00 22.5 22 Norte 35 Norte 0 -- -- 59
2019-06-05 13:00:00 21.5 15 Noroeste 35 Norte 0 -- -- 63
2019-06-05 12:00:00 21.2 16 Noroeste 28 Noroeste 0 -- -- 68
2019-06-05 11:00:00 19.9 15 Norte 35 Norte 0 -- -- 73
2019-06-05 10:00:00 20.2 15 Noroeste 30 Noroeste 0 -- -- 70
2019-06-05 09:00:00 19.1 20 Noroeste 40 Noroeste 0 -- -- 74
2019-06-05 08:00:00 18.5 21 Noroeste 36 Noroeste 0 -- -- 75
2019-06-05 07:00:00 18.7 15 Noroeste 32 Noroeste 0 -- -- 73
2019-06-05 06:00:00 18.6 13 Noroeste 31 Norte 0 -- -- 72
2019-06-05 05:00:00 18.6 19 Noroeste 41 Noroeste 0 -- -- 74
2019-06-05 04:00:00 18.6 22 Noroeste 45 Oeste 0 -- -- 75
2019-06-05 03:00:00 18.4 15 Noroeste 47 Noroeste 0 -- -- 73
2019-06-05 02:00:00 18.3 23 Noroeste 39 Noroeste 0 -- -- 74
2019-06-05 01:00:00 18.3 19 Noroeste 40 Noroeste 0 -- -- 78
2019-06-05 00:00:00 18.3 18 Noroeste 44 Noroeste 0 -- -- 75
2019-06-04 23:00:00 18.1 30 Noroeste 42 Noroeste 0 -- -- 74
2019-06-04 22:00:00 19.3 22 Noroeste 32 Noroeste 0 -- -- 61
2019-06-04 21:00:00 21.9 18 Noroeste 32 Noroeste 0 -- -- 41
2019-06-04 20:00:00 23.9 20 Noroeste 39 Noroeste 0 -- -- 35
2019-06-04 19:00:00 26 19 Noroeste 36 Norte 0 -- -- 30
2019-06-04 18:00:00 26.9 19 Noroeste 34 Noroeste 0 -- -- 29
2019-06-04 17:00:00 27 21 Norte 33 Norte 0 -- -- 33
2019-06-04 16:00:00 27.3 21 Noroeste 34 Noroeste 0 -- -- 34
2019-06-04 15:00:00 28.3 17 Noroeste 33 Norte 0 -- -- 30
2019-06-04 14:00:00 28.3 18 Norte 33 Noroeste 0 -- -- 29
2019-06-04 13:00:00 28.7 21 Norte 33 Noroeste 0 -- -- 24
2019-06-04 12:00:00 26.9 20 Norte 33 Oeste 0 -- -- 27
2019-06-04 11:00:00 25.8 19 Norte 36 Norte 0 -- -- 29
2019-06-04 10:00:00 26.2 17 Norte 35 Noroeste 0 -- -- 27
2019-06-04 09:00:00 24.5 19 Noroeste 38 Noroeste 0 -- -- 24
2019-06-04 08:00:00 23.7 17 Noroeste 30 Noroeste 0 -- -- 25
2019-06-04 07:00:00 22.9 15 Noroeste 28 Norte 0 -- -- 30
2019-06-04 06:00:00 24.3 13 Noroeste 32 Noroeste 0 -- -- 23
2019-06-04 05:00:00 24.6 22 Noroeste 37 Noroeste 0 -- -- 20
2019-06-04 04:00:00 24.1 20 Noroeste 33 Oeste 0 -- -- 19
2019-06-04 03:00:00 23.9 18 Noroeste 33 Noroeste 0 -- -- 20
2019-06-04 02:00:00 25.5 14 Noroeste 23 Noroeste 0 -- -- 23
2019-06-04 01:00:00 26.3 11 Noroeste 27 Noroeste 0 -- -- 24
2019-06-04 00:00:00 26.8 10 Oeste 26 Noroeste 0 -- -- 25
2019-06-03 23:00:00 26.4 10 Noroeste 25 Noroeste 0 -- -- 25
2019-06-03 22:00:00 26.7 11 Noroeste 24 Oeste 0 -- -- 25
2019-06-03 21:00:00 27.3 9 Noroeste 28 Noroeste 0 -- -- 25
2019-06-03 20:00:00 28.7 18 Noroeste 32 Noroeste 0 -- -- 24
2019-06-03 19:00:00 29.9 16 Noroeste 36 Noroeste 0 -- -- 24
2019-06-03 18:00:00 31.1 21 Norte 34 Norte 0 -- -- 23
2019-06-03 17:00:00 31.4 20 Norte 38 Noroeste 0 -- -- 21
2019-06-03 16:00:00 32.4 14 Norte 36 Noroeste 0 -- -- 21
2019-06-03 15:00:00 32.1 17 Noroeste 30 Noroeste 0 -- -- 21
2019-06-03 14:00:00 31.1 17 Noroeste 32 Norte 0 -- -- 24
2019-06-03 13:00:00 32 20 Norte 30 Norte 0 -- -- 22
2019-06-03 12:00:00 31.3 21 Norte 31 Norte 0 -- -- 23
2019-06-03 11:00:00 31.4 17 Norte 24 Norte 0 -- -- 23
2019-06-03 10:00:00 29.4 17 Norte 26 Norte 0 -- -- 21
2019-06-03 09:00:00 26.8 11 Noroeste 23 Noroeste 0 -- -- 23
2019-06-03 08:00:00 25.2 9 Noroeste 23 Oeste 0 -- -- 22
2019-06-03 07:00:00 24.5 11 Noroeste 27 Norte 0 -- -- 24
2019-06-03 06:00:00 24 13 Oeste 19 Oeste 0 -- -- 21
2019-06-03 05:00:00 24.8 12 Oeste 27 Noroeste 0 -- -- 24
2019-06-03 04:00:00 24.8 17 Noroeste 25 Noroeste 0 -- -- 28
2019-06-03 03:00:00 25.2 13 Noroeste 23 Norte 0 -- -- 30
2019-06-03 02:00:00 26.1 14 Oeste 26 Oeste 0 -- -- 25
2019-06-03 01:00:00 26.3 10 Oeste 23 Oeste 0 -- -- 26
2019-06-03 00:00:00 26.2 9 Noroeste 23 Oeste 0 -- -- 30
2019-06-02 23:00:00 26.5 13 Oeste 22 Oeste 0 -- -- 28
2019-06-02 22:00:00 26.6 12 Noroeste 26 Noroeste 0 -- -- 28
2019-06-02 21:00:00 28 14 Norte 25 Noroeste 0 -- -- 17
2019-06-02 20:00:00 29.6 13 Noroeste 27 Noroeste 0 -- -- 16
2019-06-02 19:00:00 30.2 11 Norte 26 Norte 0 -- -- 19
2019-06-02 18:00:00 29 12 Este 19 Este 0 -- -- 39
2019-06-02 17:00:00 28.3 10 Este 22 Sudeste 0 -- -- 48
2019-06-02 16:00:00 28.8 12 Este 19 Este 0 -- -- 49
2019-06-02 15:00:00 29.1 8 Este 16 Este 0 -- -- 50
2019-06-02 14:00:00 28.7 10 Este 17 Este 0 -- -- 51
2019-06-02 13:00:00 27.1 8 Este 19 Este 0 -- -- 54
2019-06-02 12:00:00 27.6 9 Este 14 Este 0 -- -- 53
2019-06-02 11:00:00 26.7 9 Este 15 Este 0 -- -- 54
2019-06-02 10:00:00 32 6 Norte 11 Este 0 -- -- 26
2019-06-02 09:00:00 27.4 8 Oeste 14 Oeste 0 -- -- 31
2019-06-02 08:00:00 23.6 8 Sudoeste 14 Sudoeste 0 -- -- 32
2019-06-02 07:00:00 23.3 7 Oeste 13 Oeste 0 -- -- 30
2019-06-02 06:00:00 24.7 12 Oeste 17 Oeste 0 -- -- 32
2019-06-02 05:00:00 23.4 2 Sudoeste 18 Oeste 0 -- -- 40
2019-06-02 04:00:00 23.7 9 Sudoeste 15 Oeste 0 -- -- 36
2019-06-02 03:00:00 23.8 8 Oeste 16 Oeste 0 -- -- 37
2019-06-02 02:00:00 23.1 8 Oeste 18 Oeste 0 -- -- 41
2019-06-02 01:00:00 22.3 9 Sudoeste 17 Oeste 0 -- -- 44
2019-06-02 00:00:00 20.7 10 Oeste 13 Oeste 0 -- -- 58
2019-06-01 23:00:00 19.5 7 Oeste 14 Oeste 0 -- -- 74
2019-06-01 22:00:00 19.1 8 Oeste 12 Sudoeste 0 -- -- 81
2019-06-01 21:00:00 20.3 4 Este 12 Este 0 -- -- 76
2019-06-01 20:00:00 22.2 6 Este 17 Este 0 -- -- 69
2019-06-01 19:00:00 24.1 6 Este 19 Sudeste 0 -- -- 63
2019-06-01 18:00:00 25.6 9 Este 19 Este 0 -- -- 59
2019-06-01 17:00:00 25.8 10 Este 21 Sudeste 0 -- -- 58
2019-06-01 16:00:00 24.9 12 Este 23 Este 0 -- -- 61
2019-06-01 15:00:00 24.1 9 Este 23 Nordeste 0 -- -- 62
2019-06-01 14:00:00 23.7 14 Este 23 Este 0 -- -- 64
2019-06-01 13:00:00 23.3 15 Este 23 Este 0 -- -- 65
2019-06-01 12:00:00 23.1 12 Nordeste 23 Nordeste 0 -- -- 64
2019-06-01 11:00:00 22.9 8 Norte 27 Norte 0 -- -- 66
2019-06-01 10:00:00 21 14 Norte 23 Norte 0 -- -- 71
2019-06-01 09:00:00 19.5 3 Nordeste 9 Oeste 0 -- -- 73
2019-06-01 08:00:00 16 6 Oeste 11 Este 0 -- -- 84
2019-06-01 07:00:00 15.7 4 Sudoeste 11 Oeste 0 -- -- 81
2019-06-01 06:00:00 15.8 7 Oeste 10 Este 0 -- -- 83
2019-06-01 05:00:00 17.6 8 Este 18 Oeste 0 -- -- 71
2019-06-01 04:00:00 16.3 5 Sudeste 18 Oeste 0 -- -- 82
2019-06-01 03:00:00 16.2 10 Noroeste 21 Noroeste 0 -- -- 86
2019-06-01 02:00:00 16 3 Noroeste 7 Noroeste 0 -- -- 86
2019-06-01 01:00:00 16.8 5 Sudeste 14 Sudeste 0 -- -- 84
2019-06-01 00:00:00 17.3 2 Este 13 Este 0 -- -- 80
2019-05-31 23:00:00 18.4 4 Este 8 Oeste 0 -- -- 76
2019-05-31 22:00:00 18.8 2 Este 10 Sudeste 0 -- -- 77
2019-05-31 21:00:00 20.7 6 Este 12 Este 0 -- -- 69
2019-05-31 20:00:00 23.2 12 Sudeste 18 Este 0 -- -- 60
2019-05-31 19:00:00 25.6 10 Este 17 Sudeste 0 -- -- 53
2019-05-31 18:00:00 26.5 12 Este 19 Este 0 -- -- 51
2019-05-31 17:00:00 27 12 Este 21 Este 0 -- -- 50
2019-05-31 16:00:00 27.5 13 Este 24 Este 0 -- -- 48
2019-05-31 15:00:00 26.8 15 Este 24 Este 0 -- -- 51
2019-05-31 14:00:00 26.7 12 Este 23 Nordeste 0 -- -- 51
2019-05-31 13:00:00 24.1 12 Este 24 Este 0 -- -- 58
2019-05-31 12:00:00 24.9 13 Este 23 Este 0 -- -- 55
2019-05-31 11:00:00 25 11 Este 21 Este 0 -- -- 50
2019-05-31 10:00:00 22.3 3 Norte 8 Sudoeste 0 -- -- 49
2019-05-31 09:00:00 19.1 4 Este 6 Nordeste 0 -- -- 68
2019-05-31 08:00:00 15.5 0 Calma 8 Oeste 0 -- -- 57
2019-05-31 07:00:00 14.3 7 Oeste 11 Oeste 0 -- -- 78
2019-05-31 06:00:00 15.5 4 Sudeste 9 Sudoeste 0 -- -- 53
2019-05-31 05:00:00 16.4 4 Este 12 Oeste 0 -- -- 40
2019-05-31 04:00:00 16.3 10 Oeste 17 Oeste 0 -- -- 48
2019-05-31 03:00:00 15 7 Oeste 11 Oeste 0 -- -- 69
2019-05-31 02:00:00 15.4 5 Sudoeste 9 Sudoeste 0 -- -- 72
2019-05-31 01:00:00 15.7 5 Sudoeste 9 Sudoeste 0 -- -- 74
2019-05-31 00:00:00 16.2 0 Calma 6 Nordeste 0 -- -- 82
2019-05-30 23:00:00 17 4 Este 8 Este 0 -- -- 80
2019-05-30 22:00:00 18.6 4 Este 9 Sudeste 0 -- -- 72
2019-05-30 21:00:00 19.8 7 Sudeste 14 Este 0 -- -- 67
2019-05-30 20:00:00 22.9 9 Sudeste 14 Sudeste 0 -- -- 58
2019-05-30 19:00:00 25.4 4 Sur 15 Nordeste 0 -- -- 51
2019-05-30 18:00:00 26.9 7 Este 25 Norte 0 -- -- 48
2019-05-30 17:00:00 26.6 13 Norte 24 Nordeste 0 -- -- 47
2019-05-30 16:00:00 27.6 11 Norte 25 Norte 0 -- -- 46
2019-05-30 15:00:00 26.2 17 Norte 28 Norte 0 -- -- 51
2019-05-30 14:00:00 25.7 13 Norte 26 Norte 0 -- -- 52
2019-05-30 13:00:00 25.2 8 Nordeste 22 Este 0 -- -- 53
2019-05-30 12:00:00 24.3 8 Norte 22 Nordeste 0 -- -- 55
2019-05-30 11:00:00 22.9 8 Este 18 Este 0 -- -- 56
2019-05-30 10:00:00 20.7 4 Este 9 Este 0 -- -- 60
2019-05-30 09:00:00 18.2 3 Este 8 Este 0 -- -- 71
2019-05-30 08:00:00 14.5 0 Calma 11 Oeste 0 -- -- 70
2019-05-30 07:00:00 12.6 4 Sudoeste 7 Sudoeste 0 -- -- 69
2019-05-30 06:00:00 13.1 5 Oeste 8 Oeste 0 -- -- 71
2019-05-30 05:00:00 13.6 5 Sudoeste 8 Sudoeste 0 -- -- 71
2019-05-30 04:00:00 13.8 3 Sudoeste 5 Oeste 0 -- -- 74
2019-05-30 03:00:00 14.8 5 Sudoeste 13 Noroeste 0 -- -- 72
2019-05-30 02:00:00 14.6 4 Noroeste 11 Oeste 0 -- -- 73
2019-05-30 01:00:00 15.2 0 Calma 8 Sudoeste 0 -- -- 70
2019-05-30 00:00:00 15.9 3 Sudoeste 12 Noroeste 0 -- -- 72
2019-05-29 23:00:00 17.1 5 Oeste 18 Oeste 0 -- -- 68
2019-05-29 22:00:00 17.8 3 Sudeste 10 Sudeste 0 -- -- 70
2019-05-29 21:00:00 19.6 3 Noroeste 21 Norte 0 -- -- 61
2019-05-29 20:00:00 22.6 14 Norte 23 Norte 0 -- -- 54
2019-05-29 19:00:00 24.1 17 Norte 28 Noroeste 0 -- -- 51
2019-05-29 18:00:00 24.7 13 Norte 28 Noroeste 0 -- -- 50
2019-05-29 17:00:00 24.4 19 Norte 32 Norte 0 -- -- 52
2019-05-29 16:00:00 25.9 17 Norte 24 Norte 0 -- -- 45
2019-05-29 15:00:00 26.1 13 Norte 26 Norte 0 -- -- 47
2019-05-29 14:00:00 25.3 14 Norte 26 Norte 0 -- -- 50
2019-05-29 13:00:00 24.9 13 Norte 26 Norte 0 -- -- 52
2019-05-29 12:00:00 23.5 13 Norte 28 Norte 0 -- -- 56
2019-05-29 11:00:00 22 18 Norte 27 Norte 0 -- -- 60
2019-05-29 10:00:00 20.7 12 Norte 22 Noroeste 0 -- -- 61
2019-05-29 09:00:00 18.6 9 Norte 18 Norte 0 -- -- 67
2019-05-29 08:00:00 14.7 3 Sudeste 6 Sudeste 0 -- -- 69
2019-05-29 07:00:00 13.3 0 Calma 8 Sudoeste 0 -- -- 69
2019-05-29 06:00:00 14 5 Sudoeste 13 Noroeste 0 -- -- 68
2019-05-29 05:00:00 15.4 3 Oeste 15 Oeste 0 -- -- 71
2019-05-29 04:00:00 15.2 9 Sudoeste 22 Oeste 0 -- -- 73
2019-05-29 03:00:00 16.1 7 Noroeste 31 Norte 0 -- -- 78
2019-05-29 02:00:00 16.4 10 Noroeste 27 Norte 0 -- -- 79
2019-05-29 01:00:00 16.5 14 Noroeste 33 Noroeste 0 -- -- 80
2019-05-29 00:00:00 16.7 17 Noroeste 39 Noroeste 0 -- -- 81
2019-05-28 23:00:00 16.9 18 Noroeste 36 Noroeste 0 -- -- 81
2019-05-28 22:00:00 17 18 Noroeste 38 Noroeste 0 -- -- 80
2019-05-28 21:00:00 17.6 17 Noroeste 37 Noroeste 0 -- -- 79
2019-05-28 20:00:00 19.6 22 Noroeste 41 Noroeste 0 -- -- 71
2019-05-28 19:00:00 21.1 22 Norte 38 Norte 0 -- -- 68
2019-05-28 18:00:00 22.5 14 Norte 32 Norte 0 -- -- 62
2019-05-28 17:00:00 23.4 16 Norte 32 Norte 0 -- -- 59
2019-05-28 16:00:00 23.9 18 Norte 31 Norte 0 -- -- 57
2019-05-28 15:00:00 24.5 19 Norte 39 Norte 0 -- -- 55
2019-05-28 14:00:00 24.2 16 Norte 32 Norte 0 -- -- 56
2019-05-28 13:00:00 24.2 15 Norte 27 Norte 0 -- -- 55
2019-05-28 12:00:00 23.2 13 Norte 29 Norte 0 -- -- 58
2019-05-28 11:00:00 23 7 Norte 23 Noroeste 0 -- -- 59
2019-05-28 10:00:00 21.2 8 Norte 29 Noroeste 0 -- -- 64
2019-05-28 09:00:00 19.4 8 Norte 34 Noroeste 0 -- -- 69
2019-05-28 08:00:00 17.7 15 Noroeste 31 Noroeste 0 -- -- 75
2019-05-28 07:00:00 17 6 Oeste 22 Noroeste 0 -- -- 75
2019-05-28 06:00:00 17.3 8 Oeste 28 Norte 0 -- -- 76
2019-05-28 05:00:00 17.2 20 Norte 39 Noroeste 0 -- -- 78
2019-05-28 04:00:00 17.6 11 Norte 25 Norte 0 -- -- 72
2019-05-28 03:00:00 17.5 10 Oeste 24 Norte 0 -- -- 70
2019-05-28 02:00:00 17.7 8 Noroeste 22 Noroeste 0 -- -- 72
2019-05-28 01:00:00 18.1 3 Sur 13 Sur 0 -- -- 70
2019-05-28 00:00:00 19 5 Sudeste 19 Noroeste 0 -- -- 62